createdAt,value
2018-02-14T00:01:31.109Z,9.80
2018-02-14T00:04:00.314Z,9.73
2018-02-14T00:06:28.587Z,10.13
2018-02-14T00:08:56.151Z,10.65
2018-02-14T00:11:23.674Z,10.88
2018-02-14T00:13:51.545Z,11.18
2018-02-14T00:16:19.041Z,10.80
2018-02-14T00:18:46.529Z,11.80
2018-02-14T00:21:14.082Z,11.20
2018-02-14T00:23:41.644Z,11.32
2018-02-14T00:26:09.173Z,11.65
2018-02-14T00:28:36.671Z,11.27
2018-02-14T10:34:00.742Z,19.92
2018-02-14T10:36:28.234Z,19.95
2018-02-14T10:39:07.296Z,19.85
2018-02-14T10:41:34.889Z,20.23
2018-02-14T10:44:02.492Z,19.27
2018-02-14T10:46:30.042Z,18.77
2018-02-14T10:48:57.636Z,19.08
2018-02-14T10:51:25.170Z,18.37
2018-02-14T10:53:52.723Z,19.40
2018-02-14T10:56:20.240Z,19.65
2018-02-14T10:58:47.819Z,18.42
2018-02-14T11:01:20.829Z,16.60
2018-02-14T11:03:50.803Z,18.40
2018-02-14T11:09:15.783Z,19.30
2018-02-14T11:11:45.789Z,17.17
2018-02-14T11:14:14.950Z,15.93
2018-02-14T11:16:44.114Z,17.52
2018-02-14T11:19:13.246Z,18.70
2018-02-14T11:21:42.528Z,17.98
2018-02-14T11:24:11.812Z,17.52
2018-02-14T11:26:41.080Z,17.65
2018-02-14T11:29:10.248Z,17.10
2018-02-14T11:31:39.390Z,16.52
2018-02-14T11:34:08.561Z,17.55
2018-02-14T11:36:37.701Z,17.75
2018-02-14T11:39:06.882Z,17.12
2018-02-14T11:41:35.146Z,16.15
2018-02-14T11:44:02.621Z,15.82
2018-02-14T11:46:30.246Z,15.63
2018-02-14T11:48:57.761Z,15.73
2018-02-14T11:51:25.351Z,15.50
2018-02-14T11:53:52.836Z,15.15
2018-02-14T11:56:21.416Z,22.25
2018-02-14T11:58:48.916Z,16.33
2018-02-14T12:01:16.594Z,14.98
2018-02-14T12:03:44.130Z,15.63
2018-02-14T12:06:11.704Z,14.68
2018-02-14T12:08:39.236Z,15.55
2018-02-14T12:11:06.707Z,15.77
2018-02-14T12:13:34.313Z,15.13
2018-02-14T12:16:01.818Z,16.23
2018-02-14T12:18:29.312Z,14.55
2018-02-14T12:20:56.833Z,15.60
2018-02-14T12:23:25.969Z,16.10
2018-02-14T12:25:55.113Z,13.90
2018-02-14T12:28:24.272Z,16.00
2018-02-14T12:33:26.214Z,15.60
2018-02-14T12:35:53.865Z,15.57
2018-02-14T12:38:23.249Z,16.20
2018-02-14T12:40:50.921Z,14.57
2018-02-14T12:43:20.200Z,9.50
2018-02-14T12:45:49.530Z,11.67
2018-02-14T12:48:18.677Z,10.43
2018-02-14T12:50:47.910Z,11.20
2018-02-14T12:53:17.127Z,11.90
2018-02-14T12:55:46.356Z,14.27
2018-02-14T12:58:15.514Z,25.67
2018-02-14T13:00:44.695Z,12.30
2018-02-14T13:03:13.835Z,11.37
2018-02-14T13:05:43.748Z,11.07
2018-02-14T13:08:12.893Z,10.90
2018-02-14T13:10:42.058Z,10.40
2018-02-14T13:13:11.272Z,10.53
2018-02-14T13:15:40.497Z,10.70
2018-02-14T13:18:09.721Z,11.20
2018-02-14T13:20:39.467Z,11.30
2018-02-14T13:23:08.612Z,11.00
2018-02-14T13:25:38.169Z,12.40
2018-02-14T13:28:07.332Z,10.90
2018-02-14T13:30:36.503Z,11.50
2018-02-14T13:33:05.747Z,13.00
2018-02-14T13:35:34.882Z,11.90
2018-02-14T13:38:04.131Z,12.53
2018-02-14T13:40:33.235Z,11.33
2018-02-14T13:43:02.333Z,11.20
2018-02-14T13:45:31.330Z,11.37
2018-02-14T13:48:00.385Z,11.10
2018-02-14T13:50:29.381Z,11.33
2018-02-14T13:52:58.346Z,11.33
2018-02-14T13:55:27.373Z,11.60
2018-02-14T13:57:56.398Z,12.27
2018-02-14T14:00:25.441Z,11.63
2018-02-14T14:02:54.404Z,11.90
2018-02-14T14:05:23.428Z,11.20
2018-02-14T14:07:52.360Z,11.00
2018-02-14T14:10:21.485Z,10.13
2018-02-14T14:12:50.502Z,9.80
2018-02-14T14:15:19.579Z,10.53
2018-02-14T14:17:48.788Z,11.03
2018-02-14T14:20:17.762Z,11.13
2018-02-14T14:22:46.680Z,11.17
2018-02-14T14:25:15.600Z,10.53
2018-02-14T14:27:44.564Z,11.80
2018-02-14T14:30:13.635Z,10.90
2018-02-14T14:32:42.563Z,12.20
2018-02-14T14:35:11.483Z,11.37
2018-02-14T14:37:40.389Z,10.60
2018-02-14T14:40:09.525Z,12.27
2018-02-14T14:42:38.848Z,11.90
2018-02-14T14:45:08.018Z,11.77
2018-02-14T14:47:37.159Z,11.20
2018-02-14T14:50:06.301Z,10.03
2018-02-14T14:52:35.557Z,9.17
2018-02-14T14:55:04.708Z,10.60
2018-02-14T14:57:33.840Z,10.30
2018-02-14T15:00:03.020Z,9.83
2018-02-14T15:02:32.176Z,9.50
2018-02-14T15:05:01.352Z,11.60
2018-02-14T15:07:30.508Z,11.20
2018-02-14T15:09:59.649Z,11.07
2018-02-14T15:12:28.789Z,11.20
2018-02-14T15:14:57.953Z,10.47
2018-02-14T15:17:27.153Z,9.90
2018-02-14T15:19:56.386Z,9.70
2018-02-14T15:22:25.527Z,10.50
2018-02-14T15:24:54.680Z,8.97
2018-02-14T15:27:23.816Z,9.13
2018-02-14T15:29:53.092Z,8.63
2018-02-14T15:32:22.264Z,8.57
2018-02-14T15:34:51.464Z,8.50
2018-02-14T15:37:20.612Z,9.20
2018-02-14T15:39:51.514Z,8.50
2018-02-14T15:42:19.009Z,9.57
2018-02-14T15:44:47.314Z,8.83
2018-02-14T15:47:15.351Z,9.00
2018-02-14T15:49:43.342Z,8.97
2018-02-14T15:52:10.841Z,8.97
2018-02-14T15:54:39.310Z,9.00
2018-02-14T15:57:06.821Z,8.63
2018-02-14T15:59:34.434Z,9.32
2018-02-14T16:02:02.972Z,8.13
2018-02-14T16:04:30.726Z,8.38
2018-02-14T16:06:58.889Z,8.18
2018-02-14T16:09:27.170Z,8.15
2018-02-14T16:11:55.701Z,7.85
2018-02-14T16:14:23.257Z,8.48
2018-02-14T16:16:50.840Z,7.65
2018-02-14T16:19:20.033Z,8.32
2018-02-14T16:21:48.302Z,8.68
2018-02-14T16:24:17.321Z,9.18
2018-02-14T16:26:44.840Z,9.25
2018-02-14T16:29:16.985Z,7.43
2018-02-14T16:31:46.967Z,8.45
2018-02-14T16:34:19.045Z,8.95
2018-02-14T16:36:46.824Z,8.32
2018-02-14T16:39:15.310Z,7.95
2018-02-14T16:41:43.424Z,7.65
2018-02-14T16:44:11.687Z,9.95
2018-02-14T16:46:39.298Z,10.80
2018-02-14T16:49:07.839Z,11.40
2018-02-14T16:51:35.418Z,13.55
2018-02-14T16:54:04.600Z,17.25
2018-02-14T16:56:32.444Z,15.20
2018-02-14T16:59:00.237Z,15.63
2018-02-14T17:01:28.558Z,12.82
2018-02-14T17:03:56.731Z,12.70
2018-02-14T17:06:24.358Z,13.02
2018-02-14T17:08:51.959Z,11.70
2018-02-14T17:11:20.374Z,11.30
2018-02-14T17:13:47.930Z,10.20
2018-02-14T17:16:16.238Z,11.12
2018-02-14T17:18:43.769Z,9.88
2018-02-14T17:21:12.045Z,11.57
2018-02-14T17:23:39.742Z,9.93
2018-02-14T17:26:07.234Z,11.40
2018-02-14T17:28:34.826Z,11.82
2018-02-14T17:31:03.754Z,12.30
2018-02-14T17:33:31.249Z,10.70
2018-02-14T17:35:59.556Z,12.50
2018-02-14T17:38:27.941Z,12.23
2018-02-14T17:40:56.338Z,11.50
2018-02-14T17:43:25.430Z,12.10
2018-02-14T17:45:54.113Z,13.00
2018-02-14T17:48:21.763Z,11.55
2018-02-14T17:50:49.322Z,12.73
2018-02-14T17:53:16.840Z,13.40
2018-02-14T17:55:45.500Z,12.13
2018-02-14T17:58:13.054Z,12.68
2018-02-14T18:00:40.609Z,12.50
2018-02-14T18:03:08.127Z,13.10
2018-02-14T18:05:35.625Z,12.55
2018-02-14T18:08:03.114Z,12.40
2018-02-14T18:10:31.478Z,13.50
2018-02-14T18:12:59.060Z,12.02
2018-02-14T18:15:26.700Z,13.35
2018-02-14T18:17:54.545Z,12.98
2018-02-14T18:20:22.057Z,12.07
2018-02-14T18:22:49.563Z,13.25
2018-02-14T18:25:18.229Z,13.15
2018-02-14T18:27:45.812Z,13.27
2018-02-14T18:30:14.084Z,13.30
2018-02-14T18:32:41.577Z,13.95
2018-02-14T18:35:09.977Z,14.23
2018-02-14T18:37:38.241Z,15.13
2018-02-14T18:40:06.226Z,14.87
2018-02-14T18:42:33.874Z,13.75
2018-02-14T18:45:01.410Z,13.70
2018-02-14T18:47:29.669Z,14.20
2018-02-14T18:49:58.418Z,13.48
2018-02-14T18:52:30.154Z,13.68
2018-02-14T18:54:58.470Z,13.38
2018-02-14T18:57:26.011Z,13.80
2018-02-14T18:59:54.286Z,13.30
2018-02-14T19:02:21.816Z,13.85
2018-02-14T19:04:49.346Z,14.15
2018-02-14T19:07:17.841Z,15.00
2018-02-14T19:09:46.221Z,14.93
2018-02-14T19:12:14.516Z,13.32
2018-02-14T19:14:42.006Z,13.77
2018-02-14T19:17:09.495Z,14.93
2018-02-14T19:19:37.010Z,16.02
2018-02-14T19:22:04.567Z,14.85
2018-02-14T19:24:32.050Z,13.80
2018-02-14T19:26:59.674Z,14.32
2018-02-14T19:29:28.025Z,14.77
2018-02-14T19:31:57.277Z,14.80
2018-02-14T19:34:24.770Z,15.65
2018-02-14T19:36:52.380Z,13.85
2018-02-14T19:39:19.965Z,15.18
2018-02-14T19:41:47.613Z,14.38
2018-02-14T19:44:15.212Z,15.60
2018-02-14T19:46:43.464Z,16.33
2018-02-14T19:49:10.965Z,14.45
2018-02-14T19:51:39.431Z,15.40
2018-02-14T19:54:07.884Z,16.25
2018-02-14T19:56:35.378Z,14.82
2018-02-14T19:59:02.890Z,19.00
2018-02-14T20:01:30.465Z,15.85
2018-02-14T20:03:58.148Z,16.25
2018-02-14T20:06:25.751Z,16.77
2018-02-14T20:08:53.638Z,16.25
2018-02-14T20:11:21.149Z,15.93
2018-02-14T20:13:48.649Z,17.50
2018-02-14T20:16:16.940Z,16.27
2018-02-14T20:18:45.045Z,18.23
2018-02-14T20:21:12.959Z,18.62
2018-02-14T20:23:40.617Z,16.55
2018-02-14T20:26:08.950Z,14.45
2018-02-14T20:28:36.735Z,16.25
2018-02-14T20:31:04.990Z,15.80
2018-02-14T20:33:32.516Z,17.58
2018-02-14T20:36:00.003Z,15.80
2018-02-14T20:38:27.517Z,15.95
2018-02-14T20:40:55.347Z,15.55
2018-02-14T20:43:22.877Z,16.77
2018-02-14T20:45:51.280Z,16.90
2018-02-14T20:48:19.276Z,15.65
2018-02-14T20:50:47.291Z,16.37
2018-02-14T20:53:25.694Z,16.60
2018-02-14T20:55:53.409Z,16.50
2018-02-14T20:58:20.905Z,16.55
2018-02-14T21:00:49.476Z,16.65
2018-02-14T21:03:20.536Z,16.70
2018-02-14T21:05:48.218Z,15.18
2018-02-14T21:08:15.869Z,15.70
2018-02-14T21:10:43.578Z,14.95
2018-02-14T21:13:11.251Z,15.63
2018-02-14T21:15:39.074Z,14.87
2018-02-14T21:18:10.836Z,16.50
2018-02-14T21:20:40.523Z,16.92
2018-02-14T21:23:08.661Z,15.93
2018-02-14T21:25:36.273Z,15.07
2018-02-14T21:28:04.628Z,15.25
2018-02-14T21:30:38.215Z,15.32
2018-02-14T21:33:07.903Z,14.93
2018-02-14T21:35:35.550Z,15.10
2018-02-14T21:38:03.809Z,14.87
2018-02-14T21:40:31.388Z,14.40
2018-02-14T21:42:58.944Z,15.80
2018-02-14T21:45:27.299Z,16.58
2018-02-14T21:47:56.566Z,15.70
2018-02-14T21:50:24.749Z,17.00
2018-02-14T21:52:52.492Z,16.98
2018-02-14T21:55:20.356Z,16.05
2018-02-14T21:57:48.174Z,15.95
2018-02-14T22:00:19.875Z,17.45
2018-02-14T22:02:52.664Z,16.60
2018-02-14T22:05:20.236Z,16.45
2018-02-14T22:07:55.608Z,17.33
2018-02-14T22:10:23.450Z,16.65
2018-02-14T22:12:52.033Z,16.52
2018-02-14T22:15:20.560Z,17.30
2018-02-14T22:17:51.520Z,18.25
2018-02-14T22:20:26.266Z,18.83
2018-02-14T22:22:59.676Z,18.80
2018-02-14T22:25:27.938Z,20.48
2018-02-14T22:27:56.540Z,16.60
2018-02-14T22:30:25.460Z,18.62
2018-02-14T22:32:54.290Z,20.45
2018-02-14T22:35:22.372Z,18.70
2018-02-14T22:40:55.143Z,19.00
2018-02-14T22:43:28.503Z,21.27
2018-02-14T22:45:56.108Z,20.60
2018-02-14T22:48:25.905Z,21.87
2018-02-14T22:50:53.722Z,23.92
2018-02-14T22:53:21.432Z,23.45
2018-02-14T22:55:50.028Z,21.90
2018-02-14T22:58:17.946Z,20.92
2018-02-14T23:03:19.503Z,20.88
2018-02-14T23:05:47.090Z,23.42
2018-02-14T23:08:14.610Z,23.15
2018-02-14T23:10:42.170Z,20.90
2018-02-14T23:13:09.677Z,21.90
2018-02-14T23:15:37.230Z,22.60
2018-02-14T23:18:06.570Z,22.40
2018-02-14T23:20:43.685Z,23.05
2018-02-14T23:23:11.352Z,24.30
2018-02-14T23:25:38.897Z,22.55
2018-02-14T23:28:07.017Z,20.60
2018-02-14T23:30:35.353Z,22.10
2018-02-14T23:33:02.879Z,22.13
2018-02-14T23:35:30.385Z,22.77
2018-02-14T23:37:57.881Z,21.20
2018-02-14T23:40:25.391Z,21.20
2018-02-14T23:42:52.906Z,21.85
2018-02-14T23:45:20.414Z,22.30
2018-02-14T23:47:48.882Z,22.10
2018-02-14T23:50:16.564Z,22.10
2018-02-14T23:52:45.585Z,20.20
2018-02-14T23:55:13.163Z,20.83
2018-02-14T23:57:42.892Z,21.40
